Oslo, Norvegjia

12:52 PM CET on nëntor 24, 2014 (GMT +0100)
Kikut | Change Station
CLOSE
Current Station
Personal Weather Stations
Location: Oslo, OSLO
Elevation: 1158 ft
Nearby Weather Stations

Elev 1158 ft 60.08 °N, 10.66 °E | Updated 7 minutes ago

Light Drizzle
Vese Shiu
37.4 °F
Feels Like 31 °F
N
8.0
Era e paqendrueshme Era from JP
Gusts 12.0 mph

Sot
High -- | Low -- °F
--% Chance of Precip.
Yesterday
High -- | Low -- °F
Precip. -- ne
8:36 AM 3:29 PM
Waxing Crescent, 5% visible
Presioni 29.65 ne
Visioni 6.2 milje
Clouds Few 200 ft
re te shperndara 1400 ft
shumica me re 1700 ft
Ftohtesia E erses 31 °F
Pika E Veses 35 °F
Lageshtira E ajrit 90%
Rainfall 1.07 ne
Snow Depth Not available.
UV 0 out of 12
Pollen Not available.
Air Quality Not available.
Flu Activity Not available.
METAR ENGM 241120Z 30004KT 240V340 9999 -DZRA FEW002 SCT014 BKN017 05/04 Q1004 NOSIG

More Conditions Fewer Conditions

Presioni 29.65 ne
Visioni 6.2 milje
Clouds Few 200 ft
re te shperndara 1400 ft
shumica me re 1700 ft
Ftohtesia E erses 31 °F
Pika E Veses 35 °F
Lageshtira E ajrit 90%
Rainfall 1.07 ne
Snow Depth Not available.
UV 0 out of 12
Pollen Not available.
Air Quality Not available.
Flu Activity Not available.
METAR ENGM 241120Z 30004KT 240V340 9999 -DZRA FEW002 SCT014 BKN017 05/04 Q1004 NOSIG

More Conditions Fewer Conditions

10-Day Weather Forecast

Almanac

Astronomy

Nov. 24, 2014 Rise Set
Actual Time
Civil Twilight
Nautical Twilight
Astronomical Twilight
Moon
Length Of Visible Light
Length of Day
Tomorrow will be .
, % of the Moon is Illuminated

Today's Extremes

Country Highs Country Lows

Community

WunderPhotos

Upload Photos

1,773,312 photos uploaded!

WunderBlogs® & News

Nearby

Air Quality

  Air Quality AQ Index Pollutant
Not available.

Snow Depth

Station Depth Elevation

Earthquake Activity

City Distance Mag. Time & Date
Minimum magnitude displayed is 2.5.

Coastal Water Temperatures

Vend Temperatura

Nearby Weather Stations